createdAt,value
2019-04-07T00:00:15.720Z,998.73
2019-04-07T00:00:42.615Z,998.71
2019-04-07T00:01:09.105Z,998.71
2019-04-07T00:01:35.770Z,998.72
2019-04-07T00:02:02.779Z,998.72
2019-04-07T00:02:30.464Z,998.7
2019-04-07T00:02:56.878Z,998.74
2019-04-07T00:03:23.975Z,998.72
2019-04-07T00:03:50.461Z,998.69
2019-04-07T00:04:17.298Z,998.73
2019-04-07T00:04:44.207Z,998.68
2019-04-07T00:05:14.598Z,998.68
2019-04-07T00:05:39.732Z,998.73
2019-04-07T00:06:06.559Z,998.7
2019-04-07T00:06:32.867Z,998.71
2019-04-07T00:06:59.669Z,998.7
2019-04-07T00:07:26.325Z,998.7
2019-04-07T00:07:52.853Z,998.7
2019-04-07T00:08:20.595Z,998.72
2019-04-07T00:08:47.511Z,998.68
2019-04-07T00:09:13.590Z,998.72
2019-04-07T00:09:39.996Z,998.7
2019-04-07T00:10:06.306Z,998.69
2019-04-07T00:10:34.301Z,998.68
2019-04-07T00:11:01.368Z,998.72
2019-04-07T00:11:27.822Z,998.73
2019-04-07T00:11:53.769Z,998.75
2019-04-07T00:12:20.046Z,998.74
2019-04-07T00:12:46.665Z,998.76
2019-04-07T00:13:13.609Z,998.76
2019-04-07T00:13:39.826Z,998.73
2019-04-07T00:14:05.980Z,998.71
2019-04-07T00:14:32.921Z,998.73
2019-04-07T00:14:59.420Z,998.73
2019-04-07T00:15:26.074Z,998.71
2019-04-07T00:15:52.174Z,998.69
2019-04-07T00:16:18.830Z,998.72
2019-04-07T00:16:45.582Z,998.72
2019-04-07T00:17:12.247Z,998.7
2019-04-07T00:17:39.168Z,998.71
2019-04-07T00:18:05.778Z,998.69
2019-04-07T00:18:32.806Z,998.68
2019-04-07T00:18:58.902Z,998.72
2019-04-07T00:19:26.151Z,998.7
2019-04-07T00:19:52.573Z,998.71
2019-04-07T00:20:18.727Z,998.69
2019-04-07T00:20:44.835Z,998.71
2019-04-07T00:21:11.419Z,998.73
2019-04-07T00:21:38.323Z,998.73
2019-04-07T00:22:04.547Z,998.68
2019-04-07T00:22:31.365Z,998.7
2019-04-07T00:22:57.689Z,998.72
2019-04-07T00:23:25.242Z,998.69
2019-04-07T00:23:52.125Z,998.71
2019-04-07T00:24:19.671Z,998.68
2019-04-07T00:24:45.778Z,998.69
2019-04-07T00:25:11.974Z,998.68
2019-04-07T00:25:39.726Z,998.69
2019-04-07T00:26:07.439Z,998.7
2019-04-07T00:26:34.216Z,998.73
2019-04-07T00:27:00.489Z,998.73
2019-04-07T00:27:26.620Z,998.75
2019-04-07T00:27:52.779Z,998.68
2019-04-07T00:28:19.751Z,998.71
2019-04-07T00:28:46.381Z,998.74
2019-04-07T00:29:14.441Z,998.7
2019-04-07T00:29:40.706Z,998.72
2019-04-07T00:30:07.603Z,998.73
2019-04-07T00:30:34.941Z,998.74
2019-04-07T00:31:01.922Z,998.76
2019-04-07T00:31:29.049Z,998.71
2019-04-07T00:31:55.725Z,998.74
2019-04-07T00:32:22.065Z,998.71
2019-04-07T00:32:48.438Z,998.71
2019-04-07T00:33:14.576Z,998.73
2019-04-07T00:33:41.425Z,998.7
2019-04-07T00:34:08.683Z,998.73
2019-04-07T00:34:35.697Z,998.7
2019-04-07T00:35:02.023Z,998.69
2019-04-07T00:35:33.098Z,998.66
2019-04-07T00:35:59.076Z,998.72
2019-04-07T00:36:25.838Z,998.69
2019-04-07T00:36:52.414Z,998.69
2019-04-07T00:37:19.262Z,998.67
2019-04-07T00:37:45.367Z,998.68
2019-04-07T00:38:12.724Z,998.7
2019-04-07T00:38:39.294Z,998.68
2019-04-07T00:39:06.876Z,998.66
2019-04-07T00:39:33.525Z,998.72
2019-04-07T00:39:59.667Z,998.67
2019-04-07T00:40:26.262Z,998.65
2019-04-07T00:40:53.440Z,998.68
2019-04-07T00:41:20.976Z,998.68
2019-04-07T00:41:48.122Z,998.64
2019-04-07T00:42:14.723Z,998.69
2019-04-07T00:42:41.316Z,998.67
2019-04-07T00:43:07.425Z,998.68
2019-04-07T00:43:35.160Z,998.64
2019-04-07T00:44:02.458Z,998.67
2019-04-07T00:44:29.078Z,998.69
2019-04-07T00:44:56.036Z,998.7
2019-04-07T00:45:24.012Z,998.7
2019-04-07T00:45:51.158Z,998.67
2019-04-07T00:46:19.080Z,998.71
2019-04-07T00:46:45.186Z,998.67
2019-04-07T00:47:11.876Z,998.71
2019-04-07T00:47:39.023Z,998.71
2019-04-07T00:48:05.752Z,998.71
2019-04-07T00:48:33.276Z,998.71
2019-04-07T00:49:00.313Z,998.71
2019-04-07T00:49:26.922Z,998.71
2019-04-07T00:49:53.878Z,998.7
2019-04-07T00:50:20.509Z,998.72
2019-04-07T00:50:47.360Z,998.67
2019-04-07T00:51:14.018Z,998.67
2019-04-07T00:51:41.069Z,998.68
2019-04-07T00:52:08.348Z,998.7
2019-04-07T00:52:35.930Z,998.67
2019-04-07T00:53:02.116Z,998.63
2019-04-07T00:53:29.941Z,998.67
2019-04-07T00:53:56.209Z,998.66
2019-04-07T00:54:23.770Z,998.67
2019-04-07T00:54:49.943Z,998.69
2019-04-07T00:55:16.690Z,998.68
2019-04-07T00:55:42.809Z,998.66
2019-04-07T00:56:09.366Z,998.68
2019-04-07T00:56:35.785Z,998.67
2019-04-07T00:57:02.184Z,998.65
2019-04-07T00:57:28.665Z,998.66
2019-04-07T00:57:54.778Z,998.62
2019-04-07T00:58:22.598Z,998.66
2019-04-07T00:58:49.951Z,998.66
2019-04-07T00:59:16.600Z,998.65
2019-04-07T00:59:42.420Z,998.65
2019-04-07T01:00:09.666Z,998.67
2019-04-07T01:00:37.610Z,998.66
2019-04-07T01:01:05.298Z,998.67
2019-04-07T01:01:32.304Z,998.67
2019-04-07T01:01:59.181Z,998.69
2019-04-07T01:02:26.437Z,998.67
2019-04-07T01:02:54.104Z,998.67
2019-04-07T01:03:21.077Z,998.66
2019-04-07T01:03:48.143Z,998.69
2019-04-07T01:04:14.329Z,998.65
2019-04-07T01:04:41.875Z,998.64
2019-04-07T01:05:08.831Z,998.65
2019-04-07T01:05:38.835Z,998.61
2019-04-07T01:06:04.047Z,998.67
2019-04-07T01:06:30.739Z,998.64
2019-04-07T01:06:57.900Z,998.62
2019-04-07T01:07:25.724Z,998.64
2019-04-07T01:07:52.597Z,998.59
2019-04-07T01:08:19.176Z,998.64
2019-04-07T01:08:45.683Z,998.65
2019-04-07T01:09:12.548Z,998.64
2019-04-07T01:09:39.889Z,998.63
2019-04-07T01:10:07.282Z,998.64
2019-04-07T01:10:34.729Z,998.66
2019-04-07T01:11:02.375Z,998.63
2019-04-07T01:11:29.486Z,998.67
2019-04-07T01:11:56.243Z,998.66
2019-04-07T01:12:23.467Z,998.68
2019-04-07T01:12:51.229Z,998.66
2019-04-07T01:13:17.445Z,998.68
2019-04-07T01:13:44.009Z,998.65
2019-04-07T01:14:11.194Z,998.67
2019-04-07T01:14:38.895Z,998.68
2019-04-07T01:15:05.091Z,998.69
2019-04-07T01:15:31.569Z,998.67
2019-04-07T01:15:58.029Z,998.66
2019-04-07T01:16:26.244Z,998.66
2019-04-07T01:16:53.193Z,998.65
2019-04-07T01:17:20.067Z,998.66
2019-04-07T01:17:46.544Z,998.65
2019-04-07T01:18:14.191Z,998.69
2019-04-07T01:18:41.502Z,998.68
2019-04-07T01:19:07.655Z,998.65
2019-04-07T01:19:34.405Z,998.66
2019-04-07T01:20:01.315Z,998.68
2019-04-07T01:20:27.907Z,998.66
2019-04-07T01:20:54.577Z,998.69
2019-04-07T01:21:21.219Z,998.68
2019-04-07T01:21:47.743Z,998.68
2019-04-07T01:22:15.431Z,998.66
2019-04-07T01:22:42.460Z,998.68
2019-04-07T01:23:09.156Z,998.68
2019-04-07T01:23:36.618Z,998.66
2019-04-07T01:24:04.469Z,998.69
2019-04-07T01:24:31.506Z,998.67
2019-04-07T01:24:59.341Z,998.7
2019-04-07T01:25:26.811Z,998.66
2019-04-07T01:25:53.411Z,998.64
2019-04-07T01:26:20.146Z,998.67
2019-04-07T01:26:47.181Z,998.68
2019-04-07T01:27:13.431Z,998.7
2019-04-07T01:27:41.241Z,998.69
2019-04-07T01:28:07.364Z,998.68
2019-04-07T01:28:34.053Z,998.71
2019-04-07T01:29:01.433Z,998.69
2019-04-07T01:29:27.524Z,998.66
2019-04-07T01:29:55.209Z,998.68
2019-04-07T01:30:22.596Z,998.68
2019-04-07T01:30:49.332Z,998.68
2019-04-07T01:31:16.011Z,998.71
2019-04-07T01:31:43.066Z,998.68
2019-04-07T01:32:10.243Z,998.69
2019-04-07T01:32:37.803Z,998.7
2019-04-07T01:33:04.022Z,998.72
2019-04-07T01:33:31.498Z,998.73
2019-04-07T01:33:57.673Z,998.71
2019-04-07T01:34:24.064Z,998.71
2019-04-07T01:34:50.331Z,998.7
2019-04-07T01:35:17.703Z,998.71
2019-04-07T01:35:48.610Z,998.7
2019-04-07T01:36:12.668Z,998.73
2019-04-07T01:36:39.680Z,998.71
2019-04-07T01:37:06.370Z,998.68
2019-04-07T01:37:34.098Z,998.72
2019-04-07T01:38:01.527Z,998.75
2019-04-07T01:38:29.028Z,998.69
2019-04-07T01:38:55.122Z,998.66
2019-04-07T01:39:22.975Z,998.69
2019-04-07T01:39:50.083Z,998.68
2019-04-07T01:40:16.833Z,998.7
2019-04-07T01:40:44.355Z,998.66
2019-04-07T01:41:12.090Z,998.7
2019-04-07T01:41:39.247Z,998.69
2019-04-07T01:42:05.811Z,998.69
2019-04-07T01:42:32.614Z,998.66
2019-04-07T01:42:59.776Z,998.67
2019-04-07T01:43:26.904Z,998.68
2019-04-07T01:43:54.727Z,998.69
2019-04-07T01:44:21.687Z,998.67
2019-04-07T01:44:47.789Z,998.69
2019-04-07T01:45:14.093Z,998.65
2019-04-07T01:45:40.734Z,998.67
2019-04-07T01:46:06.824Z,998.66
2019-04-07T01:46:33.863Z,998.68
2019-04-07T01:46:59.979Z,998.66
2019-04-07T01:47:27.700Z,998.68
2019-04-07T01:47:54.915Z,998.7
2019-04-07T01:48:21.955Z,998.7
2019-04-07T01:48:48.644Z,998.67
2019-04-07T01:49:16.166Z,998.66
2019-04-07T01:49:43.460Z,998.66
2019-04-07T01:50:09.597Z,998.66
2019-04-07T01:50:37.301Z,998.66
2019-04-07T01:51:04.559Z,998.66
2019-04-07T01:51:32.176Z,998.65
2019-04-07T01:51:58.193Z,998.61
2019-04-07T01:52:24.820Z,998.6
2019-04-07T01:52:51.198Z,998.63
2019-04-07T01:53:19.134Z,998.6
2019-04-07T01:53:46.599Z,998.59
2019-04-07T01:54:13.800Z,998.57
2019-04-07T01:54:40.001Z,998.55
2019-04-07T01:55:06.422Z,998.6
2019-04-07T01:55:33.527Z,998.56
2019-04-07T01:56:00.505Z,998.6
2019-04-07T01:56:28.399Z,998.58
2019-04-07T01:56:55.333Z,998.54
2019-04-07T01:57:22.046Z,998.56
2019-04-07T01:57:48.554Z,998.57
2019-04-07T01:58:16.347Z,998.57
2019-04-07T01:58:43.368Z,998.61
2019-04-07T01:59:11.375Z,998.62
2019-04-07T01:59:37.750Z,998.61
2019-04-07T02:00:04.533Z,998.59
2019-04-07T02:00:31.678Z,998.59
2019-04-07T02:00:58.893Z,998.63
2019-04-07T02:01:26.309Z,998.58
2019-04-07T02:01:53.874Z,998.6
2019-04-07T02:02:21.048Z,998.59
2019-04-07T02:02:47.825Z,998.59
2019-04-07T02:03:13.948Z,998.57
2019-04-07T02:03:41.767Z,998.58
2019-04-07T02:04:09.337Z,998.57
2019-04-07T02:04:36.041Z,998.57
2019-04-07T02:05:03.453Z,998.6
2019-04-07T02:05:30.886Z,998.57
2019-04-07T02:06:02.593Z,998.57
2019-04-07T02:06:28.258Z,998.61
2019-04-07T02:06:55.398Z,998.62
2019-04-07T02:07:22.111Z,998.65
2019-04-07T02:07:48.952Z,998.67
2019-04-07T02:08:16.638Z,998.63
2019-04-07T02:08:43.778Z,998.63
2019-04-07T02:09:10.285Z,998.58
2019-04-07T02:09:36.906Z,998.59
2019-04-07T02:10:04.344Z,998.61
2019-04-07T02:10:31.531Z,998.62
2019-04-07T02:10:58.255Z,998.6
2019-04-07T02:11:25.342Z,998.61
2019-04-07T02:11:52.981Z,998.6
2019-04-07T02:12:19.973Z,998.56
2019-04-07T02:12:47.795Z,998.59
2019-04-07T02:13:14.727Z,998.57
2019-04-07T02:13:41.431Z,998.55
2019-04-07T02:14:08.860Z,998.59
2019-04-07T02:14:36.755Z,998.58
2019-04-07T02:15:03.707Z,998.56
2019-04-07T02:15:30.629Z,998.55
2019-04-07T02:15:57.920Z,998.59
2019-04-07T02:16:25.774Z,998.56
2019-04-07T02:16:52.207Z,998.52
2019-04-07T02:17:19.922Z,998.55
2019-04-07T02:17:46.950Z,998.55
2019-04-07T02:18:13.768Z,998.52
2019-04-07T02:18:40.616Z,998.54
2019-04-07T02:19:06.775Z,998.55
2019-04-07T02:19:33.001Z,998.59
2019-04-07T02:20:00.326Z,998.56
2019-04-07T02:20:27.936Z,998.6
2019-04-07T02:20:54.463Z,998.58
2019-04-07T02:21:21.554Z,998.6
2019-04-07T02:21:48.452Z,998.62
2019-04-07T02:22:15.836Z,998.62
2019-04-07T02:22:42.096Z,998.64
2019-04-07T02:23:08.802Z,998.6
2019-04-07T02:23:35.498Z,998.6
2019-04-07T02:24:01.589Z,998.57
2019-04-07T02:24:28.680Z,998.62
2019-04-07T02:24:55.361Z,998.58
2019-04-07T02:25:22.535Z,998.59
2019-04-07T02:25:49.324Z,998.64
2019-04-07T02:26:15.593Z,998.61
2019-04-07T02:26:42.491Z,998.6
2019-04-07T02:27:09.849Z,998.65
2019-04-07T02:27:36.147Z,998.64
2019-04-07T02:28:03.362Z,998.66
2019-04-07T02:28:29.441Z,998.65
2019-04-07T02:28:57.209Z,998.6
2019-04-07T02:29:24.642Z,998.62
2019-04-07T02:29:52.047Z,998.63
2019-04-07T02:30:21.691Z,998.66
2019-04-07T02:30:48.039Z,998.65
2019-04-07T02:31:15.417Z,998.65
2019-04-07T02:31:44.098Z,998.63
2019-04-07T02:32:10.607Z,998.67
2019-04-07T02:32:38.183Z,998.67
2019-04-07T02:33:04.937Z,998.67
2019-04-07T02:33:33.686Z,998.7
2019-04-07T02:34:00.418Z,998.64
2019-04-07T02:34:28.223Z,998.65
2019-04-07T02:34:55.824Z,998.65
2019-04-07T02:35:23.233Z,998.63
2019-04-07T02:35:52.390Z,998.63
2019-04-07T02:36:25.605Z,998.64
2019-04-07T02:36:48.459Z,998.64
2019-04-07T02:37:15.770Z,998.65
2019-04-07T02:37:42.608Z,998.64
2019-04-07T02:38:10.806Z,998.66
2019-04-07T02:38:37.334Z,998.64
2019-04-07T02:39:04.580Z,998.64
2019-04-07T02:39:32.745Z,998.62
2019-04-07T02:40:00.243Z,998.68
2019-04-07T02:40:27.214Z,998.61
2019-04-07T02:40:54.128Z,998.61
2019-04-07T02:41:20.753Z,998.67
2019-04-07T02:41:48.560Z,998.61
2019-04-07T02:42:15.178Z,998.64
2019-04-07T02:42:42.623Z,998.63
2019-04-07T02:43:10.565Z,998.64
2019-04-07T02:43:38.400Z,998.6
2019-04-07T02:44:06.728Z,998.59
2019-04-07T02:44:33.603Z,998.61
2019-04-07T02:44:59.889Z,998.58
2019-04-07T02:45:28.301Z,998.6
2019-04-07T02:45:56.582Z,998.6
2019-04-07T02:46:24.032Z,998.6
2019-04-07T02:46:51.722Z,998.61
2019-04-07T02:47:20.029Z,998.6
2019-04-07T02:47:47.259Z,998.56
2019-04-07T02:48:14.100Z,998.58
2019-04-07T02:48:41.233Z,998.59
2019-04-07T02:49:10.713Z,998.59
2019-04-07T02:49:37.938Z,998.59
2019-04-07T02:50:04.982Z,998.59
2019-04-07T02:50:33.255Z,998.62
2019-04-07T02:50:59.728Z,998.66
2019-04-07T02:51:27.704Z,998.61
2019-04-07T02:51:55.041Z,998.65
2019-04-07T02:52:22.842Z,998.61
2019-04-07T02:52:51.423Z,998.64
2019-04-07T02:53:19.421Z,998.64
2019-04-07T02:53:46.977Z,998.63
2019-04-07T02:54:15.281Z,998.66
2019-04-07T02:54:42.079Z,998.63
2019-04-07T02:55:09.800Z,998.62
2019-04-07T02:55:37.413Z,998.61
2019-04-07T02:56:04.110Z,998.63
2019-04-07T02:56:32.508Z,998.64
2019-04-07T02:57:00.131Z,998.65
2019-04-07T02:57:28.102Z,998.66
2019-04-07T02:57:56.149Z,998.63
2019-04-07T02:58:23.869Z,998.6
2019-04-07T02:58:50.275Z,998.6
2019-04-07T02:59:17.429Z,998.61
2019-04-07T02:59:46.783Z,998.64
2019-04-07T03:00:13.660Z,998.63
2019-04-07T03:00:40.122Z,998.62
2019-04-07T03:01:07.175Z,998.63
2019-04-07T03:01:33.343Z,998.61
2019-04-07T03:02:00.468Z,998.59
2019-04-07T03:02:27.729Z,998.6
2019-04-07T03:02:55.802Z,998.61
2019-04-07T03:03:22.769Z,998.57
2019-04-07T03:03:50.279Z,998.6
2019-04-07T03:04:17.854Z,998.61
2019-04-07T03:04:45.862Z,998.57
2019-04-07T03:05:13.789Z,998.59
2019-04-07T03:05:40.419Z,998.59
2019-04-07T03:06:07.280Z,998.58
2019-04-07T03:06:45.710Z,998.6
2019-04-07T03:07:06.751Z,998.59
2019-04-07T03:07:34.582Z,998.6
2019-04-07T03:08:01.527Z,998.61
2019-04-07T03:08:27.858Z,998.59
2019-04-07T03:08:54.493Z,998.58
2019-04-07T03:09:21.820Z,998.6
2019-04-07T03:09:51.610Z,998.61
2019-04-07T03:10:20.359Z,998.61
2019-04-07T03:10:47.358Z,998.59
2019-04-07T03:11:14.848Z,998.63
2019-04-07T03:11:42.839Z,998.59
2019-04-07T03:12:10.378Z,998.57
2019-04-07T03:12:39.303Z,998.59
2019-04-07T03:13:07.220Z,998.63
2019-04-07T03:13:35.422Z,998.58
2019-04-07T03:14:02.469Z,998.61
2019-04-07T03:14:28.609Z,998.63
2019-04-07T03:14:55.959Z,998.62
2019-04-07T03:15:22.708Z,998.58
2019-04-07T03:15:49.535Z,998.6
2019-04-07T03:16:17.283Z,998.58
2019-04-07T03:16:43.783Z,998.63
2019-04-07T03:17:13.912Z,998.58
2019-04-07T03:17:43.599Z,998.59
2019-04-07T03:18:12.787Z,998.59
2019-04-07T03:18:40.858Z,998.58
2019-04-07T03:19:07.252Z,998.6
2019-04-07T03:19:35.865Z,998.58
2019-04-07T03:20:02.963Z,998.6
2019-04-07T03:20:31.063Z,998.61
2019-04-07T03:20:59.363Z,998.63
2019-04-07T03:21:26.739Z,998.59
2019-04-07T03:21:54.241Z,998.58
2019-04-07T03:22:22.201Z,998.61
2019-04-07T03:22:49.150Z,998.61
2019-04-07T03:23:16.256Z,998.58
2019-04-07T03:23:44.095Z,998.61
2019-04-07T03:24:11.204Z,998.59
2019-04-07T03:24:40.417Z,998.6
2019-04-07T03:25:09.842Z,998.56
2019-04-07T03:25:37.546Z,998.63
2019-04-07T03:26:06.180Z,998.6
2019-04-07T03:26:33.123Z,998.63
2019-04-07T03:27:00.976Z,998.58
2019-04-07T03:27:30.175Z,998.58
2019-04-07T03:28:00.480Z,998.58
2019-04-07T03:28:27.221Z,998.63
2019-04-07T03:28:55.628Z,998.62
2019-04-07T03:29:23.555Z,998.59
2019-04-07T03:29:50.911Z,998.61
2019-04-07T03:30:20.576Z,998.65
2019-04-07T03:30:49.369Z,998.63
2019-04-07T03:31:17.061Z,998.64
2019-04-07T03:31:48.404Z,998.66
2019-04-07T03:32:18.970Z,998.59
2019-04-07T03:32:49.213Z,998.63
2019-04-07T03:33:21.064Z,998.64
2019-04-07T03:33:49.637Z,998.65
2019-04-07T03:34:18.374Z,998.64
2019-04-07T03:34:47.201Z,998.64
2019-04-07T03:35:18.624Z,998.64
2019-04-07T03:35:49.914Z,998.67
2019-04-07T03:36:19.969Z,998.67
2019-04-07T03:37:11.524Z,998.66
2019-04-07T03:37:29.577Z,998.65
2019-04-07T03:37:48.140Z,998.65
2019-04-07T03:38:13.726Z,998.66
2019-04-07T03:38:41.045Z,998.68
2019-04-07T03:39:08.902Z,998.66
2019-04-07T03:39:35.523Z,998.64
2019-04-07T03:40:04.759Z,998.66
2019-04-07T03:40:30.895Z,998.67
2019-04-07T03:40:59.064Z,998.64
2019-04-07T03:41:27.773Z,998.63
2019-04-07T03:41:55.511Z,998.65
2019-04-07T03:42:23.198Z,998.64
2019-04-07T03:42:51.230Z,998.68
2019-04-07T03:43:19.597Z,998.66
2019-04-07T03:43:47.436Z,998.63
2019-04-07T03:44:15.709Z,998.68
2019-04-07T03:44:42.945Z,998.72
2019-04-07T03:45:10.131Z,998.67
2019-04-07T03:45:38.070Z,998.68
2019-04-07T03:46:06.011Z,998.71
2019-04-07T03:46:34.633Z,998.68
2019-04-07T03:47:03.292Z,998.69
2019-04-07T03:47:32.053Z,998.71
2019-04-07T03:48:00.514Z,998.69
2019-04-07T03:48:28.434Z,998.7
2019-04-07T03:48:55.450Z,998.69
2019-04-07T03:49:23.323Z,998.67
2019-04-07T03:49:51.016Z,998.68
2019-04-07T03:50:18.616Z,998.71
2019-04-07T03:50:46.334Z,998.69
2019-04-07T03:51:14.987Z,998.71
2019-04-07T03:51:43.906Z,998.71
2019-04-07T03:52:10.267Z,998.68
2019-04-07T03:52:37.595Z,998.69
2019-04-07T03:53:05.992Z,998.7
2019-04-07T03:53:35.831Z,998.68
2019-04-07T03:54:02.887Z,998.71
2019-04-07T03:54:30.285Z,998.71
2019-04-07T03:54:58.751Z,998.72
2019-04-07T03:55:26.733Z,998.7
2019-04-07T03:55:53.437Z,998.71
2019-04-07T03:56:21.881Z,998.7
2019-04-07T03:56:49.766Z,998.73
2019-04-07T03:57:16.693Z,998.71
2019-04-07T03:57:44.472Z,998.72
2019-04-07T03:58:10.653Z,998.75
2019-04-07T03:58:37.727Z,998.7
2019-04-07T03:59:05.547Z,998.7
2019-04-07T03:59:32.030Z,998.71
2019-04-07T03:59:58.171Z,998.73
2019-04-07T04:00:25.467Z,998.75
2019-04-07T04:00:53.182Z,998.72
2019-04-07T04:01:21.945Z,998.72
2019-04-07T04:01:49.665Z,998.72
2019-04-07T04:02:16.144Z,998.74
2019-04-07T04:02:42.370Z,998.74
2019-04-07T04:03:10.891Z,998.76
2019-04-07T04:03:38.724Z,998.74
2019-04-07T04:04:06.039Z,998.71
2019-04-07T04:04:32.844Z,998.74
2019-04-07T04:04:59.676Z,998.73
2019-04-07T04:05:27.401Z,998.75
2019-04-07T04:05:55.605Z,998.74
2019-04-07T04:06:22.963Z,998.75
2019-04-07T04:06:49.734Z,998.76
2019-04-07T04:07:28.091Z,998.76
2019-04-07T04:07:47.379Z,998.77
2019-04-07T04:08:14.678Z,998.75
2019-04-07T04:08:41.935Z,998.76
2019-04-07T04:09:09.812Z,998.78
2019-04-07T04:09:38.326Z,998.76
2019-04-07T04:10:04.944Z,998.75
2019-04-07T04:10:32.328Z,998.72
2019-04-07T04:11:00.008Z,998.79
2019-04-07T04:11:25.837Z,998.75
2019-04-07T04:11:53.618Z,998.75
2019-04-07T04:12:21.250Z,998.77
2019-04-07T04:12:48.997Z,998.76
2019-04-07T04:13:17.533Z,998.77
2019-04-07T04:13:44.800Z,998.76
2019-04-07T04:14:11.865Z,998.81
2019-04-07T04:14:39.710Z,998.76
2019-04-07T04:15:08.745Z,998.76
2019-04-07T04:15:36.740Z,998.77
2019-04-07T04:16:04.705Z,998.77
2019-04-07T04:16:32.066Z,998.79
2019-04-07T04:16:59.587Z,998.76
2019-04-07T04:17:27.116Z,998.78
2019-04-07T04:17:53.912Z,998.76
2019-04-07T04:18:20.485Z,998.76
2019-04-07T04:18:48.296Z,998.75
2019-04-07T04:19:16.183Z,998.78
2019-04-07T04:19:44.133Z,998.75
2019-04-07T04:20:11.413Z,998.8
2019-04-07T04:20:39.546Z,998.78
2019-04-07T04:21:07.010Z,998.77
2019-04-07T04:21:34.139Z,998.77
2019-04-07T04:22:02.028Z,998.78
2019-04-07T04:22:29.685Z,998.77
2019-04-07T04:22:55.852Z,998.8
2019-04-07T04:23:23.203Z,998.81
2019-04-07T04:23:51.630Z,998.78
2019-04-07T04:24:19.984Z,998.82
2019-04-07T04:24:47.428Z,998.8
2019-04-07T04:25:16.948Z,998.79
2019-04-07T04:25:45.393Z,998.8
2019-04-07T04:26:11.712Z,998.8
2019-04-07T04:26:39.619Z,998.82
2019-04-07T04:27:06.717Z,998.81
2019-04-07T04:27:35.422Z,998.79
2019-04-07T04:28:02.188Z,998.82
2019-04-07T04:28:29.107Z,998.83
2019-04-07T04:28:56.562Z,998.79
2019-04-07T04:29:24.741Z,998.83
2019-04-07T04:29:52.313Z,998.8
2019-04-07T04:30:19.806Z,998.87
2019-04-07T04:30:48.331Z,998.84
2019-04-07T04:31:15.395Z,998.88
2019-04-07T04:31:42.339Z,998.87
2019-04-07T04:32:09.108Z,998.87
2019-04-07T04:32:37.087Z,998.89
2019-04-07T04:33:06.079Z,998.88
2019-04-07T04:33:33.006Z,998.88
2019-04-07T04:34:01.538Z,998.87
2019-04-07T04:34:27.834Z,998.91
2019-04-07T04:34:54.788Z,998.89
2019-04-07T04:35:20.976Z,998.89
2019-04-07T04:35:49.554Z,998.9
2019-04-07T04:36:16.241Z,998.92
2019-04-07T04:36:44.644Z,998.93
2019-04-07T04:37:12.684Z,998.9
2019-04-07T04:37:44.099Z,998.9
2019-04-07T04:38:11.999Z,998.95
2019-04-07T04:38:38.504Z,998.91
2019-04-07T04:39:06.527Z,998.93
2019-04-07T04:39:35.475Z,998.91
2019-04-07T04:40:02.651Z,999
2019-04-07T04:40:30.719Z,998.92
2019-04-07T04:40:58.156Z,998.98
2019-04-07T04:41:25.197Z,998.95
2019-04-07T04:41:52.131Z,998.96
2019-04-07T04:42:19.058Z,998.96
2019-04-07T04:42:48.497Z,998.99
2019-04-07T04:43:15.738Z,998.97
2019-04-07T04:43:42.355Z,998.96
2019-04-07T04:44:10.105Z,998.99
2019-04-07T04:44:38.862Z,998.99
2019-04-07T04:45:06.172Z,998.98
2019-04-07T04:45:33.713Z,998.97
2019-04-07T04:46:01.959Z,998.99
2019-04-07T04:46:30.384Z,998.97
2019-04-07T04:46:56.398Z,998.95
2019-04-07T04:47:23.207Z,999
2019-04-07T04:47:50.178Z,999
2019-04-07T04:48:19.620Z,998.98
2019-04-07T04:48:48.968Z,999
2019-04-07T04:49:17.100Z,998.97
2019-04-07T04:49:46.562Z,998.96
2019-04-07T04:50:13.438Z,998.98
2019-04-07T04:50:40.687Z,998.96
2019-04-07T04:51:06.851Z,998.99
2019-04-07T04:51:38.657Z,998.99
2019-04-07T04:52:03.058Z,999
2019-04-07T04:52:30.278Z,998.97
2019-04-07T04:52:57.537Z,998.98
2019-04-07T04:53:25.644Z,999
2019-04-07T04:53:53.699Z,999
2019-04-07T04:54:22.398Z,999
2019-04-07T04:54:49.677Z,999.03
2019-04-07T04:55:16.760Z,999.01
2019-04-07T04:55:42.722Z,999.01
2019-04-07T04:56:09.699Z,999.04
2019-04-07T04:56:37.325Z,998.97
2019-04-07T04:57:06.682Z,998.99
2019-04-07T04:57:32.337Z,999.01
2019-04-07T04:57:58.531Z,999.03
2019-04-07T04:58:26.931Z,998.99
2019-04-07T04:58:53.807Z,999.05
2019-04-07T04:59:21.615Z,999.02
2019-04-07T04:59:47.445Z,999.03
2019-04-07T05:00:14.336Z,998.98
2019-04-07T05:00:44.529Z,999.04
2019-04-07T05:01:09.774Z,999.03
2019-04-07T05:01:37.830Z,999.05
2019-04-07T05:02:05.665Z,999.02
2019-04-07T05:02:33.674Z,999.01
2019-04-07T05:03:01.206Z,999.03
2019-04-07T05:03:28.699Z,999.01
2019-04-07T05:03:54.825Z,999.01
2019-04-07T05:04:22.873Z,999.05
2019-04-07T05:04:50.344Z,999.05
2019-04-07T05:05:18.140Z,999.04
2019-04-07T05:05:45.656Z,999
2019-04-07T05:06:13.325Z,999.07
2019-04-07T05:06:39.468Z,999.06
2019-04-07T05:07:05.748Z,999.1
2019-04-07T05:07:47.643Z,999.03
2019-04-07T05:08:03.907Z,999.06
2019-04-07T05:08:29.773Z,999.09
2019-04-07T05:08:55.063Z,999.08
2019-04-07T05:09:23.266Z,999.09
2019-04-07T05:09:53.982Z,999.1
2019-04-07T05:10:19.221Z,999.09
2019-04-07T05:10:47.291Z,999.07
2019-04-07T05:11:14.790Z,999.11
2019-04-07T05:11:42.874Z,999.11
2019-04-07T05:12:10.625Z,999.1
2019-04-07T05:12:37.956Z,999.11
2019-04-07T05:13:04.521Z,999.12
2019-04-07T05:13:31.674Z,999.13
2019-04-07T05:13:58.225Z,999.16
2019-04-07T05:14:25.751Z,999.13
2019-04-07T05:14:51.898Z,999.17
2019-04-07T05:15:18.242Z,999.13
2019-04-07T05:15:45.637Z,999.1
2019-04-07T05:16:12.827Z,999.13
2019-04-07T05:16:39.962Z,999.15
2019-04-07T05:17:06.439Z,999.14
2019-04-07T05:17:34.026Z,999.17
2019-04-07T05:18:01.657Z,999.14
2019-04-07T05:18:27.869Z,999.18
2019-04-07T05:18:54.374Z,999.16
2019-04-07T05:19:20.922Z,999.18
2019-04-07T05:19:48.196Z,999.2
2019-04-07T05:20:14.352Z,999.2
2019-04-07T05:20:40.926Z,999.19
2019-04-07T05:21:07.095Z,999.2
2019-04-07T05:21:34.893Z,999.22
2019-04-07T05:22:01.346Z,999.21
2019-04-07T05:22:29.054Z,999.21
2019-04-07T05:22:56.451Z,999.21
2019-04-07T05:23:24.143Z,999.23
2019-04-07T05:23:51.385Z,999.24
2019-04-07T05:24:18.252Z,999.23
2019-04-07T05:24:44.383Z,999.25
2019-04-07T05:25:12.150Z,999.26
2019-04-07T05:25:39.126Z,999.25
2019-04-07T05:26:06.895Z,999.23
2019-04-07T05:26:33.025Z,999.27
2019-04-07T05:27:01.000Z,999.26
2019-04-07T05:27:27.655Z,999.27
2019-04-07T05:27:54.648Z,999.3
2019-04-07T05:28:21.816Z,999.3
2019-04-07T05:28:50.439Z,999.31
2019-04-07T05:29:17.141Z,999.31
2019-04-07T05:29:44.646Z,999.29
2019-04-07T05:30:12.344Z,999.31
2019-04-07T05:30:39.138Z,999.29
2019-04-07T05:31:05.790Z,999.31
2019-04-07T05:31:32.072Z,999.34
2019-04-07T05:31:59.146Z,999.34
2019-04-07T05:32:26.824Z,999.35
2019-04-07T05:32:53.469Z,999.34
2019-04-07T05:33:21.105Z,999.33
2019-04-07T05:33:48.427Z,999.34
2019-04-07T05:34:18.378Z,999.38
2019-04-07T05:34:43.005Z,999.4
2019-04-07T05:35:09.756Z,999.37
2019-04-07T05:35:36.432Z,999.39
2019-04-07T05:36:03.761Z,999.39
2019-04-07T05:36:31.197Z,999.37
2019-04-07T05:36:58.747Z,999.39
2019-04-07T05:37:26.123Z,999.42
2019-04-07T05:38:01.175Z,999.4
2019-04-07T05:38:22.325Z,999.4
2019-04-07T05:38:48.493Z,999.4
2019-04-07T05:39:16.380Z,999.42
2019-04-07T05:39:42.552Z,999.44
2019-04-07T05:40:10.117Z,999.44
2019-04-07T05:40:37.162Z,999.43
2019-04-07T05:41:03.857Z,999.47
2019-04-07T05:41:30.445Z,999.44
2019-04-07T05:41:58.047Z,999.51
2019-04-07T05:42:25.134Z,999.48
2019-04-07T05:42:52.011Z,999.46